Time;durP1;ratioP1;P1;durP2;ratioP2;P2;SDS_P1;SDS_P2;PMS_P1;PMS_P2;Temp;Humidity;BMP_temperature;BMP_pressure;BME280_temperature;BME280_humidity;BME280_pressure;Samples;Min_cycle;Max_cycle;Signal;HPM_P1;HPM_P2
2022/05/07 00:00:52;;;;;;;12.43;8.47;;;13.50;99.90;;;;;;5001765;28;20227;-77
2022/05/07 00:03:20;;;;;;;11.40;8.77;;;13.50;99.90;;;;;;5008717;28;20203;-79
2022/05/07 00:05:47;;;;;;;10.93;9.50;;;13.60;99.90;;;;;;5007835;28;20526;-78
2022/05/07 00:08:14;;;;;;;13.33;10.30;;;13.60;99.90;;;;;;5006317;28;20231;-78
2022/05/07 00:10:43;;;;;;;14.60;10.27;;;13.60;99.90;;;;;;5009149;28;20191;-78
2022/05/07 00:13:11;;;;;;;13.97;10.43;;;13.60;99.90;;;;;;5004665;28;20217;-79
2022/05/07 00:15:38;;;;;;;16.23;12.37;;;13.70;99.90;;;;;;4995175;28;20242;-79
2022/05/07 00:18:07;;;;;;;16.63;11.63;;;13.70;99.90;;;;;;4989524;28;20258;-78
2022/05/07 00:20:35;;;;;;;16.57;11.67;;;13.70;99.90;;;;;;4987817;28;20265;-79
2022/05/07 00:23:02;;;;;;;17.93;13.20;;;13.80;99.90;;;;;;4993736;28;20207;-79
2022/05/07 00:25:30;;;;;;;16.07;13.23;;;13.80;99.90;;;;;;5001053;28;20246;-78
2022/05/07 00:27:57;;;;;;;16.43;12.03;;;13.80;99.90;;;;;;4995376;28;20308;-78
2022/05/07 00:30:24;;;;;;;17.93;12.73;;;13.80;99.90;;;;;;4990212;28;20269;-80
2022/05/07 00:32:51;;;;;;;18.03;13.23;;;13.70;99.90;;;;;;4973967;28;20233;-79
2022/05/07 00:35:18;;;;;;;15.83;12.33;;;14.00;99.90;;;;;;4991576;28;20234;-79
2022/05/07 00:37:45;;;;;;;19.10;13.73;;;13.70;99.90;;;;;;4990260;28;20871;-78
2022/05/07 00:40:12;;;;;;;22.37;13.30;;;13.60;99.90;;;;;;4990774;28;20206;-79
2022/05/07 00:42:39;;;;;;;16.90;12.10;;;13.70;99.90;;;;;;4991936;28;20248;-77
2022/05/07 00:45:07;;;;;;;16.73;12.60;;;13.60;99.90;;;;;;4990418;28;20989;-78
2022/05/07 00:47:34;;;;;;;17.87;13.20;;;13.70;99.90;;;;;;4972687;28;20211;-78
2022/05/07 00:52:48;;;;;;;18.30;12.87;;;13.70;99.90;;;;;;4986748;28;20215;-78
2022/05/07 00:55:16;;;;;;;18.90;13.23;;;13.60;99.90;;;;;;4989542;28;20208;-78
2022/05/07 00:57:43;;;;;;;19.17;14.13;;;13.70;99.90;;;;;;4989546;28;20683;-78
2022/05/07 01:00:12;;;;;;;21.43;14.30;;;13.70;99.90;;;;;;4984461;28;20266;-78
2022/05/07 01:02:41;;;;;;;21.70;14.77;;;13.70;99.90;;;;;;4986040;28;20930;-77
2022/05/07 01:05:10;;;;;;;21.00;15.07;;;13.70;99.90;;;;;;4988728;28;20231;-78
2022/05/07 01:07:37;;;;;;;19.07;13.97;;;13.60;99.90;;;;;;4984498;28;20214;-77
2022/05/07 01:10:05;;;;;;;21.23;14.87;;;13.70;99.90;;;;;;4988690;28;21159;-77
2022/05/07 01:12:33;;;;;;;20.10;15.07;;;13.60;99.90;;;;;;4989678;28;20265;-77
2022/05/07 01:15:01;;;;;;;20.17;13.80;;;13.60;99.90;;;;;;4988171;28;20294;-77
2022/05/07 01:17:32;;;;;;;21.53;15.07;;;13.60;99.90;;;;;;4989243;28;20571;-79
2022/05/07 01:20:00;;;;;;;18.60;14.20;;;13.60;99.90;;;;;;4986128;28;20269;-77
2022/05/07 01:22:32;;;;;;;22.33;16.43;;;13.60;99.90;;;;;;4989575;28;20625;-79
2022/05/07 01:24:59;;;;;;;20.73;14.87;;;13.70;99.90;;;;;;4989994;28;20222;-80
2022/05/07 01:27:26;;;;;;;20.07;16.37;;;13.70;99.90;;;;;;4989268;28;20670;-78
2022/05/07 01:29:53;;;;;;;21.33;15.63;;;13.50;99.90;;;;;;4986663;28;20210;-78
2022/05/07 01:32:20;;;;;;;22.30;16.00;;;13.50;99.90;;;;;;4989169;28;20211;-78
2022/05/07 01:34:46;;;;;;;24.60;16.50;;;13.50;99.90;;;;;;4989091;28;20222;-79
2022/05/07 01:37:13;;;;;;;20.37;16.60;;;13.50;99.90;;;;;;4989220;28;20265;-78
2022/05/07 01:39:40;;;;;;;20.60;15.50;;;13.40;99.90;;;;;;4992326;28;20264;-78
2022/05/07 01:42:07;;;;;;;22.20;15.67;;;13.50;99.90;;;;;;4989657;28;20288;-78
2022/05/07 01:44:34;;;;;;;23.17;16.10;;;13.50;99.90;;;;;;4988473;28;20305;-78
2022/05/07 01:49:47;;;;;;;23.40;16.40;;;13.40;99.90;;;;;;4982390;28;20326;-77
2022/05/07 01:52:14;;;;;;;21.47;15.67;;;13.40;99.90;;;;;;4987824;28;20237;-77
2022/05/07 01:54:41;;;;;;;20.20;15.83;;;13.40;99.90;;;;;;4987931;28;20548;-78
2022/05/07 01:57:08;;;;;;;20.77;15.63;;;13.30;99.90;;;;;;4987806;28;20703;-77
2022/05/07 01:59:35;;;;;;;22.17;16.73;;;13.30;99.90;;;;;;4985550;28;20253;-78
2022/05/07 02:02:02;;;;;;;24.47;16.90;;;13.20;99.90;;;;;;4987841;28;20280;-77
2022/05/07 02:04:29;;;;;;;22.20;16.23;;;13.30;99.90;;;;;;4987976;28;20226;-78
2022/05/07 02:06:56;;;;;;;23.73;17.20;;;13.30;99.90;;;;;;4987644;28;20210;-76
2022/05/07 02:09:24;;;;;;;28.80;17.57;;;13.30;99.90;;;;;;4987726;28;20266;-77
2022/05/07 02:11:51;;;;;;;26.67;17.13;;;13.30;99.90;;;;;;4988536;28;20237;-78
2022/05/07 02:14:17;;;;;;;25.90;17.53;;;13.40;99.90;;;;;;4987842;28;20788;-78
2022/05/07 02:16:44;;;;;;;26.70;18.13;;;13.40;99.90;;;;;;4988058;28;20219;-79
2022/05/07 02:19:11;;;;;;;27.13;18.67;;;13.40;99.90;;;;;;4967304;28;20229;-78
2022/05/07 02:21:38;;;;;;;23.23;18.37;;;13.40;99.90;;;;;;4987869;28;20241;-79
2022/05/07 02:24:05;;;;;;;26.67;17.67;;;13.30;99.90;;;;;;4988054;28;20642;-80
2022/05/07 02:26:32;;;;;;;26.93;17.87;;;13.30;99.90;;;;;;4986583;28;20237;-80
2022/05/07 02:28:59;;;;;;;26.47;17.10;;;13.50;99.90;;;;;;4985703;28;20730;-78
2022/05/07 02:31:26;;;;;;;22.80;16.20;;;13.40;99.90;;;;;;4988433;28;20242;-77
2022/05/07 02:33:53;;;;;;;24.67;17.63;;;13.30;99.90;;;;;;4987811;28;20225;-78
2022/05/07 02:36:20;;;;;;;21.80;16.10;;;13.30;99.90;;;;;;4987805;28;20260;-78
2022/05/07 02:38:47;;;;;;;20.80;15.20;;;13.50;99.90;;;;;;4984467;28;20222;-78
2022/05/07 02:43:59;;;;;;;23.70;16.87;;;13.20;99.90;;;;;;4986254;28;20745;-78
2022/05/07 02:46:26;;;;;;;20.00;15.30;;;13.20;99.90;;;;;;4970400;28;20214;-77
2022/05/07 02:48:52;;;;;;;22.40;15.77;;;13.20;99.90;;;;;;4984894;28;20310;-79
2022/05/07 02:51:20;;;;;;;23.80;16.80;;;13.20;99.90;;;;;;4987509;28;20864;-77
2022/05/07 02:53:47;;;;;;;23.60;17.13;;;13.10;99.90;;;;;;4987687;28;20202;-78
2022/05/07 02:56:14;;;;;;;25.20;17.00;;;13.20;99.90;;;;;;4985879;28;20200;-77
2022/05/07 02:58:40;;;;;;;32.70;20.77;;;13.10;99.90;;;;;;4986776;28;20249;-78
2022/05/07 03:01:07;;;;;;;29.33;19.43;;;13.10;99.90;;;;;;4987082;28;20210;-78
2022/05/07 03:03:35;;;;;;;30.27;20.03;;;13.20;99.90;;;;;;4987806;28;20389;-79
2022/05/07 03:06:02;;;;;;;31.03;20.37;;;13.10;99.90;;;;;;4986819;28;20272;-77
2022/05/07 03:08:29;;;;;;;36.33;21.90;;;13.10;99.90;;;;;;4967803;28;20231;-78
2022/05/07 03:10:57;;;;;;;34.63;21.43;;;13.10;99.90;;;;;;4987884;28;20245;-77
2022/05/07 03:13:24;;;;;;;37.83;21.47;;;13.20;99.90;;;;;;4985916;28;20725;-78
2022/05/07 03:15:52;;;;;;;37.87;22.90;;;13.20;99.90;;;;;;4969445;28;20309;-78
2022/05/07 03:18:19;;;;;;;34.90;21.43;;;13.40;99.90;;;;;;4984177;28;20221;-78
2022/05/07 03:20:46;;;;;;;33.13;21.07;;;13.20;99.90;;;;;;4990967;28;20217;-78
2022/05/07 03:23:13;;;;;;;32.80;20.93;;;13.20;99.90;;;;;;4990291;28;20230;-78
2022/05/07 03:25:39;;;;;;;31.37;21.87;;;13.30;99.90;;;;;;4990953;28;20258;-79
2022/05/07 03:28:07;;;;;;;33.70;21.20;;;13.30;99.90;;;;;;4991139;28;20198;-78
2022/05/07 03:30:34;;;;;;;35.37;21.20;;;13.30;99.90;;;;;;4989794;28;20214;-77
2022/05/07 03:33:01;;;;;;;33.77;20.30;;;13.30;99.90;;;;;;4990900;28;20651;-78
2022/05/07 03:35:29;;;;;;;30.60;20.23;;;13.30;99.90;;;;;;4987796;28;20243;-78
2022/05/07 03:37:56;;;;;;;38.07;21.90;;;13.30;99.90;;;;;;4990574;28;20222;-77
2022/05/07 03:40:23;;;;;;;33.40;20.80;;;13.40;99.90;;;;;;4990562;28;20247;-78
2022/05/07 03:42:50;;;;;;;33.73;22.43;;;13.40;99.90;;;;;;4990871;28;20362;-76
2022/05/07 03:45:17;;;;;;;33.73;21.40;;;13.40;99.90;;;;;;4973972;28;20269;-79
2022/05/07 03:47:44;;;;;;;34.00;20.27;;;13.40;99.90;;;;;;4989557;28;20221;-78
2022/05/07 03:50:11;;;;;;;30.80;20.93;;;13.40;99.90;;;;;;4986363;28;20252;-79
2022/05/07 03:55:23;;;;;;;30.80;20.00;;;13.50;99.90;;;;;;4989966;28;20221;-77
2022/05/07 03:57:50;;;;;;;31.97;21.17;;;13.50;99.90;;;;;;4986580;28;20209;-77
2022/05/07 04:00:17;;;;;;;35.23;21.63;;;13.50;99.90;;;;;;4989502;28;20230;-78
2022/05/07 04:02:45;;;;;;;32.03;20.60;;;13.40;99.90;;;;;;4990063;28;20755;-77
2022/05/07 04:05:12;;;;;;;33.37;20.40;;;13.50;99.90;;;;;;4990810;28;20223;-79
2022/05/07 04:07:38;;;;;;;33.27;21.63;;;13.50;99.90;;;;;;4988844;28;20203;-77
2022/05/07 04:10:06;;;;;;;35.13;22.50;;;13.50;99.90;;;;;;4989999;28;20605;-78
2022/05/07 04:12:34;;;;;;;33.10;21.27;;;13.50;99.90;;;;;;4990055;28;20294;-77
2022/05/07 04:15:02;;;;;;;31.60;21.60;;;13.50;99.90;;;;;;4989467;28;20297;-78
2022/05/07 04:17:29;;;;;;;38.10;22.63;;;13.50;99.90;;;;;;4985302;28;20200;-77
2022/05/07 04:19:56;;;;;;;36.13;21.10;;;13.50;99.90;;;;;;4988712;28;20238;-78
2022/05/07 04:22:23;;;;;;;33.37;19.57;;;13.50;99.90;;;;;;4990252;28;20241;-79
2022/05/07 04:24:50;;;;;;;34.53;20.73;;;13.50;99.90;;;;;;4987797;28;20222;-78
2022/05/07 04:27:17;;;;;;;32.67;21.00;;;13.60;99.90;;;;;;4986498;28;20210;-77
2022/05/07 04:29:44;;;;;;;32.33;20.60;;;13.60;99.90;;;;;;4989468;28;20261;-77
2022/05/07 04:32:13;;;;;;;31.73;21.27;;;13.50;99.90;;;;;;4985543;28;20208;-78
2022/05/07 04:34:39;;;;;;;36.50;21.77;;;13.70;99.90;;;;;;4990294;28;20789;-76
2022/05/07 04:37:07;;;;;;;30.73;20.60;;;13.70;99.90;;;;;;4988131;28;20696;-79
2022/05/07 04:39:35;;;;;;;33.43;20.90;;;13.70;99.90;;;;;;4990172;28;20250;-78
2022/05/07 04:42:02;;;;;;;34.63;21.60;;;13.80;99.90;;;;;;4989651;28;20207;-76
2022/05/07 04:44:29;;;;;;;36.80;22.30;;;13.80;99.90;;;;;;4989972;28;20273;-78
2022/05/07 04:46:57;;;;;;;35.23;22.23;;;13.60;99.90;;;;;;4988667;28;20283;-77
2022/05/07 04:49:24;;;;;;;32.77;22.20;;;13.80;99.90;;;;;;4988948;28;20293;-77
2022/05/07 04:51:51;;;;;;;36.67;22.73;;;13.80;99.90;;;;;;4989350;28;20851;-79
2022/05/07 04:54:19;;;;;;;35.53;22.80;;;13.90;99.90;;;;;;4990029;28;20282;-78
2022/05/07 04:56:48;;;;;;;34.70;23.00;;;14.00;99.90;;;;;;4987366;28;20210;-77
2022/05/07 04:59:16;;;;;;;37.07;23.77;;;14.10;99.90;;;;;;4989464;28;20722;-77
2022/05/07 05:01:43;;;;;;;35.43;24.03;;;14.10;99.90;;;;;;4987024;28;20360;-78
2022/05/07 05:04:11;;;;;;;35.00;23.73;;;14.10;99.90;;;;;;4986182;28;20627;-76
2022/05/07 05:06:39;;;;;;;37.13;24.13;;;14.20;99.90;;;;;;4984175;28;20318;-78
2022/05/07 05:09:08;;;;;;;38.33;24.03;;;14.20;99.90;;;;;;4988812;28;20207;-77
2022/05/07 05:11:35;;;;;;;36.77;25.30;;;14.30;99.90;;;;;;4985127;28;20230;-77
2022/05/07 05:15:01;;;;;;;40.43;26.30;;;14.40;99.90;;;;;;4986259;28;20192;-75
2022/05/07 05:16:50;;;;;;;40.07;25.93;;;14.50;99.90;;;;;;4984854;28;20202;-77
2022/05/07 05:19:17;;;;;;;42.83;26.37;;;14.50;99.90;;;;;;4987744;28;20230;-79
2022/05/07 05:21:44;;;;;;;38.77;26.47;;;14.70;99.90;;;;;;4988655;28;20226;-76
2022/05/07 05:24:12;;;;;;;38.67;24.63;;;14.70;99.90;;;;;;4987443;28;20326;-77
2022/05/07 05:26:40;;;;;;;43.67;27.03;;;14.80;99.90;;;;;;4985180;28;20318;-77
2022/05/07 05:29:06;;;;;;;40.70;26.07;;;14.90;99.90;;;;;;4988918;28;20269;-76
2022/05/07 05:31:33;;;;;;;36.97;24.33;;;14.90;99.90;;;;;;4988575;28;20211;-77
2022/05/07 05:34:00;;;;;;;38.83;24.57;;;15.00;99.90;;;;;;4987852;28;20219;-80
2022/05/07 05:36:27;;;;;;;41.17;26.07;;;15.10;99.90;;;;;;4988586;28;20211;-79
2022/05/07 05:38:54;;;;;;;35.33;24.67;;;15.20;99.90;;;;;;4988068;28;20211;-79
2022/05/07 05:41:21;;;;;;;37.23;23.97;;;15.30;99.90;;;;;;4987221;28;20637;-76
2022/05/07 05:43:48;;;;;;;37.73;24.73;;;15.40;99.90;;;;;;4988817;28;20322;-77
2022/05/07 05:46:15;;;;;;;34.57;23.70;;;15.50;99.90;;;;;;4988726;28;20683;-77
2022/05/07 05:48:42;;;;;;;33.57;21.83;;;15.60;99.90;;;;;;4986255;28;20247;-78
2022/05/07 05:51:09;;;;;;;36.83;24.03;;;15.70;99.90;;;;;;4986802;28;20946;-79
2022/05/07 05:53:36;;;;;;;31.67;20.93;;;15.70;99.90;;;;;;4971300;28;20733;-77
2022/05/07 05:56:03;;;;;;;34.03;21.97;;;15.80;99.90;;;;;;4988207;28;20297;-77
2022/05/07 05:58:33;;;;;;;32.67;20.63;;;15.90;99.90;;;;;;4986218;28;20234;-76
2022/05/07 06:01:02;;;;;;;36.70;22.10;;;16.00;99.90;;;;;;4986140;28;20238;-76
2022/05/07 06:03:30;;;;;;;29.27;20.37;;;16.10;99.90;;;;;;4987710;28;20238;-78
2022/05/07 06:05:58;;;;;;;30.53;20.53;;;16.20;99.90;;;;;;4970794;28;20643;-77
2022/05/07 06:08:24;;;;;;;29.73;18.67;;;16.30;99.90;;;;;;4986726;28;20294;-76
2022/05/07 06:10:54;;;;;;;26.00;18.60;;;16.40;99.90;;;;;;4987627;28;20203;-77
2022/05/07 06:13:21;;;;;;;25.10;16.47;;;16.60;99.90;;;;;;4988325;28;21053;-77
2022/05/07 06:15:51;;;;;;;27.53;17.97;;;16.80;99.90;;;;;;4988452;28;20200;-77
2022/05/07 06:18:22;;;;;;;23.50;17.33;;;16.90;99.90;;;;;;4986730;28;20206;-78
2022/05/07 06:20:50;;;;;;;25.40;17.27;;;17.10;99.90;;;;;;4970823;28;20269;-77
2022/05/07 06:23:16;;;;;;;28.90;16.40;;;17.30;99.90;;;;;;4988073;28;20643;-77
2022/05/07 06:28:31;;;;;;;20.50;12.73;;;17.60;99.90;;;;;;4990759;28;20257;-84
2022/05/07 06:30:59;;;;;;;22.13;12.95;;;17.60;99.90;;;;;;4976750;28;20297;-85
2022/05/07 06:33:29;;;;;;;18.67;11.75;;;17.70;99.90;;;;;;4991914;28;21076;-85
2022/05/07 06:35:56;;;;;;;18.95;12.10;;;17.70;99.90;;;;;;4974699;28;20218;-85
2022/05/07 06:38:23;;;;;;;19.60;12.25;;;17.80;99.90;;;;;;4991612;28;20250;-85
2022/05/07 06:40:50;;;;;;;17.08;11.15;;;17.90;99.90;;;;;;4993305;28;20628;-86
2022/05/07 06:43:21;;;;;;;17.25;11.18;;;18.00;99.90;;;;;;4991629;28;20227;-79
2022/05/07 06:45:48;;;;;;;16.73;10.60;;;18.10;99.90;;;;;;4988016;28;20686;-79
2022/05/07 06:48:15;;;;;;;21.33;11.27;;;18.20;99.90;;;;;;4979391;28;20211;-78
2022/05/07 06:50:41;;;;;;;13.93;10.40;;;18.40;99.90;;;;;;4986958;28;20242;-79
2022/05/07 06:53:09;;;;;;;14.75;9.82;;;18.50;99.90;;;;;;4987458;28;20196;-78
2022/05/07 06:55:54;;;;;;;18.02;10.13;;;18.60;99.90;;;;;;4986966;28;20309;-80
2022/05/07 06:58:27;;;;;;;19.02;10.77;;;18.90;99.90;;;;;;4984335;28;20195;-79
2022/05/07 07:01:01;;;;;;;17.08;10.40;;;19.20;99.90;;;;;;4987307;28;20548;-81
2022/05/07 07:03:30;;;;;;;17.80;10.57;;;19.40;99.90;;;;;;4982878;28;20243;-80
2022/05/07 07:05:58;;;;;;;16.00;10.32;;;19.70;99.90;;;;;;4985433;28;20210;-80
2022/05/07 07:08:28;;;;;;;19.63;11.05;;;20.20;99.90;;;;;;4985544;28;20323;-79
2022/05/07 07:10:55;;;;;;;17.17;9.93;;;20.80;99.90;;;;;;4984401;28;20294;-80
2022/05/07 07:13:22;;;;;;;20.02;11.23;;;21.30;99.90;;;;;;4982559;28;20741;-79
2022/05/07 07:15:49;;;;;;;17.42;10.82;;;21.80;99.90;;;;;;4987034;28;20242;-78
2022/05/07 07:18:16;;;;;;;17.75;11.25;;;22.20;99.90;;;;;;4986105;28;20538;-80
2022/05/07 07:20:49;;;;;;;17.40;10.88;;;22.60;99.90;;;;;;4986938;28;20236;-80
2022/05/07 07:23:16;;;;;;;22.23;11.65;;;22.80;99.90;;;;;;4982161;28;20708;-79
2022/05/07 07:25:43;;;;;;;21.20;11.57;;;22.90;99.90;;;;;;4985993;28;20682;-79
2022/05/07 07:28:11;;;;;;;21.58;11.90;;;22.90;99.90;;;;;;4984918;28;20667;-80
2022/05/07 07:30:38;;;;;;;16.83;11.13;;;22.60;99.90;;;;;;4982658;28;20261;-78
2022/05/07 07:33:07;;;;;;;20.20;12.52;;;22.40;99.90;;;;;;4976031;28;20584;-78
2022/05/07 07:35:34;;;;;;;23.13;12.68;;;22.30;99.90;;;;;;4979711;28;20825;-80
2022/05/07 07:38:01;;;;;;;20.98;11.70;;;22.50;99.90;;;;;;4961212;28;20203;-81
2022/05/07 07:40:29;;;;;;;17.35;10.90;;;22.50;99.90;;;;;;4984012;28;20223;-78
2022/05/07 07:42:56;;;;;;;21.70;11.77;;;22.70;99.90;;;;;;4982845;28;20314;-77
2022/05/07 07:48:10;;;;;;;18.73;11.40;;;23.00;99.90;;;;;;4984398;28;20203;-81
2022/05/07 07:50:38;;;;;;;18.85;11.30;;;23.40;99.90;;;;;;4983740;28;20997;-78
2022/05/07 07:53:08;;;;;;;19.95;12.45;;;23.60;99.90;;;;;;4977427;28;20238;-79
2022/05/07 07:55:36;;;;;;;20.80;12.25;;;23.80;99.90;;;;;;4983344;28;20226;-79
2022/05/07 07:58:06;;;;;;;21.10;12.00;;;24.00;99.90;;;;;;4966115;28;20283;-81
2022/05/07 08:00:35;;;;;;;20.23;10.85;;;24.50;99.90;;;;;;4983900;28;20663;-81
2022/05/07 08:03:05;;;;;;;17.52;11.32;;;25.10;99.90;;;;;;4982247;28;20227;-80
2022/05/07 08:05:39;;;;;;;21.83;12.27;;;25.60;99.90;;;;;;4983502;28;21093;-83
2022/05/07 08:13:41;;;;;;;21.08;11.60;;;26.90;97.00;;;;;;4986599;28;20206;-79
2022/05/07 08:16:09;;;;;;;18.80;11.70;;;27.30;95.60;;;;;;4969500;28;20210;-77
2022/05/07 08:18:38;;;;;;;20.50;13.48;;;27.30;94.50;;;;;;4987651;28;20223;-79
2022/05/07 08:21:07;;;;;;;23.00;12.48;;;27.20;94.30;;;;;;4985383;28;20842;-79
2022/05/07 08:23:34;;;;;;;19.15;12.57;;;27.00;93.80;;;;;;4984276;28;20226;-78
2022/05/07 08:26:03;;;;;;;19.15;11.35;;;26.80;93.50;;;;;;4984949;28;20219;-80
2022/05/07 08:28:37;;;;;;;20.90;10.93;;;26.70;93.70;;;;;;4983618;28;20203;-78
2022/05/07 08:31:04;;;;;;;18.30;10.77;;;26.70;93.70;;;;;;4984921;28;20245;-78
2022/05/07 08:33:32;;;;;;;16.77;10.20;;;26.80;93.80;;;;;;4985546;28;20298;-79
2022/05/07 08:35:59;;;;;;;19.40;11.07;;;26.50;93.90;;;;;;4986439;28;20674;-80
2022/05/07 08:38:26;;;;;;;18.50;11.88;;;27.10;93.80;;;;;;4986801;28;20203;-80
2022/05/07 08:40:53;;;;;;;18.30;10.98;;;27.60;93.60;;;;;;4972585;28;20211;-80
2022/05/07 08:43:21;;;;;;;18.88;10.60;;;27.60;93.40;;;;;;4962204;28;20666;-81
2022/05/07 08:45:48;;;;;;;19.33;10.45;;;27.20;92.90;;;;;;4986159;28;20210;-81
2022/05/07 08:48:15;;;;;;;18.20;10.93;;;27.00;92.30;;;;;;4986225;28;20738;-79
2022/05/07 08:50:44;;;;;;;17.90;10.45;;;26.60;92.50;;;;;;4986057;28;20230;-79
2022/05/07 08:53:11;;;;;;;17.67;10.95;;;26.80;96.60;;;;;;4984844;28;20211;-78
2022/05/07 08:55:38;;;;;;;15.93;10.05;;;26.30;95.80;;;;;;4989445;28;20258;-77
2022/05/07 08:58:05;;;;;;;15.68;10.23;;;26.40;98.00;;;;;;4986816;28;20211;-79
2022/05/07 09:00:33;;;;;;;21.17;10.63;;;25.40;97.80;;;;;;4988326;28;20275;-77
2022/05/07 09:03:02;;;;;;;17.70;9.95;;;25.00;93.20;;;;;;4985337;28;20210;-77
2022/05/07 09:05:37;;;;;;;19.80;11.18;;;24.80;93.70;;;;;;4989084;28;20557;-78
2022/05/07 09:08:06;;;;;;;18.65;11.50;;;24.50;94.10;;;;;;4986515;28;20207;-77
2022/05/07 09:10:36;;;;;;;19.13;10.25;;;24.20;94.50;;;;;;4987577;28;20233;-78
2022/05/07 09:13:14;;;;;;;20.48;10.02;;;24.10;95.00;;;;;;4986426;28;20565;-78
2022/05/07 09:15:58;;;;;;;18.50;10.35;;;24.00;95.50;;;;;;4989039;28;20483;-78
2022/05/07 09:18:26;;;;;;;17.08;11.25;;;23.90;95.80;;;;;;4988281;28;20212;-78
2022/05/07 09:21:24;;;;;;;23.80;11.60;;;23.80;95.90;;;;;;4988318;28;20250;-81
2022/05/07 09:24:06;;;;;;;16.48;10.60;;;23.60;95.60;;;;;;4982813;28;20326;-78
2022/05/07 09:26:37;;;;;;;21.25;10.77;;;23.30;97.10;;;;;;4988246;28;20214;-75
2022/05/07 09:29:08;;;;;;;19.33;9.80;;;23.20;96.90;;;;;;4989318;28;20215;-78
2022/05/07 09:31:36;;;;;;;18.38;9.98;;;23.20;97.00;;;;;;4987340;28;20298;-78
2022/05/07 09:36:55;;;;;;;16.95;9.60;;;23.30;97.60;;;;;;4987057;28;20290;-77
2022/05/07 09:39:22;;;;;;;19.95;10.45;;;23.40;97.60;;;;;;4987352;28;20203;-77
2022/05/07 09:41:58;;;;;;;18.17;11.10;;;23.80;97.90;;;;;;4986469;28;20253;-78
2022/05/07 09:44:27;;;;;;;18.00;11.05;;;24.30;97.20;;;;;;4986797;28;20636;-80
2022/05/07 09:46:56;;;;;;;16.30;10.18;;;24.50;96.90;;;;;;4969394;28;20231;-78
2022/05/07 09:49:28;;;;;;;18.83;10.52;;;25.00;96.40;;;;;;4988023;28;20721;-78
2022/05/07 09:51:58;;;;;;;15.70;9.77;;;25.20;96.00;;;;;;4987536;28;20195;-78
2022/05/07 09:57:33;;;;;;;19.70;11.05;;;25.40;95.10;;;;;;4987294;28;20207;-78
2022/05/07 10:00:07;;;;;;;24.33;13.05;;;25.10;94.80;;;;;;4986591;28;20243;-79
2022/05/07 10:02:37;;;;;;;20.90;11.15;;;25.00;95.10;;;;;;4984463;28;20286;-79
2022/05/07 10:05:43;;;;;;;29.73;14.10;;;25.00;95.00;;;;;;4988194;28;20322;-79
2022/05/07 10:08:21;;;;;;;15.60;9.30;;;24.90;95.90;;;;;;4967354;28;20280;-77
2022/05/07 10:10:51;;;;;;;30.58;13.50;;;24.90;96.30;;;;;;4989181;28;20273;-76
2022/05/07 10:13:19;;;;;;;29.75;14.13;;;24.80;95.70;;;;;;4988171;28;20246;-77
2022/05/07 10:15:57;;;;;;;14.32;9.98;;;24.80;97.40;;;;;;4987631;28;20266;-76
2022/05/07 10:18:34;;;;;;;16.35;10.30;;;24.90;96.60;;;;;;4983419;28;20664;-76
2022/05/07 10:21:13;;;;;;;24.67;12.18;;;25.10;96.80;;;;;;4987898;28;20218;-76
2022/05/07 10:23:55;;;;;;;30.17;13.55;;;25.20;98.50;;;;;;4988773;28;20740;-78
2022/05/07 10:26:24;;;;;;;18.45;11.60;;;25.10;99.20;;;;;;4988770;28;20225;-80
2022/05/07 10:28:52;;;;;;;17.02;10.77;;;24.70;98.30;;;;;;4983243;28;20207;-76
2022/05/07 10:31:24;;;;;;;22.33;11.80;;;24.30;97.90;;;;;;4988176;28;20214;-76
2022/05/07 10:33:53;;;;;;;373.25;39.22;;;23.80;99.90;;;;;;4987495;28;20230;-77
2022/05/07 10:36:20;;;;;;;23.77;12.23;;;23.50;99.90;;;;;;4986720;28;20782;-81
2022/05/07 10:38:49;;;;;;;11.57;5.38;;;20.40;99.90;;;;;;4984620;28;20618;-81
2022/05/07 10:41:24;;;;;;;14.27;4.50;;;19.20;99.90;;;;;;4970257;28;20626;-80
2022/05/07 10:44:00;;;;;;;2.22;2.10;;;19.10;99.90;;;;;;4983394;28;20227;-80
2022/05/07 10:46:38;;;;;;;2.03;1.92;;;19.30;99.90;;;;;;4987953;28;20772;-81
2022/05/07 10:49:06;;;;;;;1.55;0.90;;;19.10;99.90;;;;;;4984146;28;20310;-80
2022/05/07 10:51:50;;;;;;;1.13;0.75;;;18.80;99.90;;;;;;4986180;28;20631;-80
2022/05/07 10:54:23;;;;;;;0.40;0.40;;;18.60;99.90;;;;;;4985800;28;20218;-81
2022/05/07 10:56:53;;;;;;;0.88;0.88;;;18.40;99.90;;;;;;4984018;28;20246;-79
2022/05/07 10:59:21;;;;;;;0.45;0.22;;;18.20;99.90;;;;;;4980753;28;20203;-79
2022/05/07 11:01:50;;;;;;;0.60;0.60;;;18.10;99.90;;;;;;4986255;28;20230;-80
2022/05/07 11:04:22;;;;;;;0.65;0.63;;;18.00;99.90;;;;;;4979546;28;20234;-79
2022/05/07 11:06:51;;;;;;;2.10;0.47;;;17.80;99.90;;;;;;4967745;28;20677;-79
2022/05/07 11:09:26;;;;;;;0.20;0.20;;;17.80;99.90;;;;;;4984255;28;20199;-78
2022/05/07 11:11:54;;;;;;;0.57;0.57;;;18.00;99.90;;;;;;4987359;28;20206;-77
2022/05/07 11:14:26;;;;;;;0.85;0.85;;;18.20;99.90;;;;;;4985869;28;20294;-79
2022/05/07 11:16:58;;;;;;;0.30;0.30;;;18.60;99.90;;;;;;4986899;28;20250;-78
2022/05/07 11:19:27;;;;;;;1.15;1.08;;;19.00;99.90;;;;;;4988433;28;20319;-80
2022/05/07 11:21:55;;;;;;;9.40;1.48;;;18.90;99.90;;;;;;4987508;28;20211;-78
2022/05/07 11:24:25;;;;;;;0.85;0.85;;;18.90;99.90;;;;;;4987563;28;20223;-79
2022/05/07 11:26:54;;;;;;;0.38;0.35;;;18.50;99.90;;;;;;4987693;28;20211;-77
2022/05/07 11:29:21;;;;;;;2.45;0.70;;;18.00;99.90;;;;;;4986176;28;20222;-76
2022/05/07 11:32:03;;;;;;;1.50;1.40;;;17.90;99.90;;;;;;4986564;28;20274;-78
2022/05/07 11:34:32;;;;;;;1.55;1.35;;;17.70;99.90;;;;;;4982099;28;20215;-77
2022/05/07 11:37:23;;;;;;;0.65;0.45;;;17.60;99.90;;;;;;4985037;28;20230;-77
2022/05/07 11:39:55;;;;;;;0.45;0.45;;;17.60;99.90;;;;;;4987876;28;20257;-76
2022/05/07 11:42:33;;;;;;;0.77;0.77;;;17.70;99.90;;;;;;4987584;28;20227;-76
2022/05/07 11:45:29;;;;;;;0.75;0.68;;;17.80;99.90;;;;;;4990355;28;20326;-76
2022/05/07 11:48:13;;;;;;;2.17;1.50;;;17.90;99.90;;;;;;4990034;28;20229;-75
2022/05/07 11:50:51;;;;;;;0.80;0.80;;;17.70;99.90;;;;;;4987092;28;20237;-74
2022/05/07 11:53:23;;;;;;;0.55;0.55;;;17.70;99.90;;;;;;4988668;28;20211;-75
2022/05/07 11:55:50;;;;;;;1.05;0.95;;;18.00;99.90;;;;;;4990195;28;20322;-75
2022/05/07 11:58:22;;;;;;;1.23;1.17;;;18.10;99.90;;;;;;4990872;28;20214;-76
2022/05/07 12:00:56;;;;;;;1.63;0.68;;;18.20;99.90;;;;;;4990447;28;20278;-78
2022/05/07 12:03:25;;;;;;;0.75;0.75;;;18.40;99.90;;;;;;4989996;28;20622;-77
2022/05/07 12:05:53;;;;;;;3.00;1.50;;;18.40;99.90;;;;;;4990641;28;20238;-79
2022/05/07 12:08:21;;;;;;;1.80;1.42;;;18.30;99.90;;;;;;4989283;28;20710;-78
2022/05/07 12:10:53;;;;;;;0.68;0.68;;;18.50;99.90;;;;;;4989617;28;20810;-78
2022/05/07 12:13:21;;;;;;;0.88;0.88;;;18.60;99.90;;;;;;4988569;28;20294;-82
2022/05/07 12:18:36;;;;;;;1.05;0.80;;;18.80;99.90;;;;;;4988886;28;20234;-80
2022/05/07 12:21:06;;;;;;;2.22;1.17;;;18.90;99.90;;;;;;4989363;28;20207;-79
2022/05/07 12:31:55;;;;;;;0.93;0.93;;;19.70;99.90;;;;;;4985618;28;20303;-82
2022/05/07 12:34:29;;;;;;;0.70;0.60;;;19.70;99.90;;;;;;4985176;28;20223;-81
2022/05/07 12:36:56;;;;;;;29.25;16.52;;;19.60;99.90;;;;;;4988827;28;20281;-84
2022/05/07 12:39:23;;;;;;;36.13;18.73;;;19.70;99.90;;;;;;4986082;28;20609;-81
2022/05/07 12:41:50;;;;;;;35.15;17.30;;;19.70;99.90;;;;;;4989544;28;20680;-79
2022/05/07 12:44:18;;;;;;;38.03;19.35;;;19.80;99.90;;;;;;4989394;28;20223;-83
2022/05/07 12:46:44;;;;;;;37.78;20.70;;;20.00;99.90;;;;;;4989576;28;20208;-85
2022/05/07 12:49:11;;;;;;;42.80;19.90;;;20.10;99.90;;;;;;4972773;28;20706;-81
2022/05/07 12:51:38;;;;;;;26.77;14.90;;;20.10;99.90;;;;;;4972881;28;20313;-82
2022/05/07 12:54:06;;;;;;;19.42;12.70;;;19.80;99.90;;;;;;4991075;28;20586;-81
2022/05/07 12:56:34;;;;;;;25.25;13.23;;;19.80;99.90;;;;;;4987886;28;20222;-80
2022/05/07 12:59:01;;;;;;;22.58;14.48;;;19.40;99.90;;;;;;4973074;28;20817;-80
2022/05/07 13:01:28;;;;;;;18.10;13.38;;;19.80;99.90;;;;;;4975750;28;20573;-79
2022/05/07 13:03:55;;;;;;;26.25;15.10;;;20.10;99.90;;;;;;4969902;28;20577;-80
2022/05/07 13:06:23;;;;;;;25.63;15.30;;;20.20;99.90;;;;;;4992372;28;20266;-89
2022/05/07 13:08:58;;;;;;;28.27;16.10;;;20.00;99.90;;;;;;4994076;28;20822;-80
2022/05/07 13:11:28;;;;;;;26.42;15.15;;;20.50;99.90;;;;;;4989632;28;20211;-82
2022/05/07 13:13:55;;;;;;;29.25;18.83;;;20.80;99.90;;;;;;4989068;28;20270;-84
2022/05/07 13:16:23;;;;;;;35.70;21.80;;;20.90;99.90;;;;;;4997820;28;20222;-89
2022/05/07 13:18:51;;;;;;;44.08;24.02;;;20.80;99.90;;;;;;4992506;28;20211;-86